Time;durP1;ratioP1;P1;durP2;ratioP2;P2;SDS_P1;SDS_P2;PMS_P1;PMS_P2;Temp;Humidity;BMP_temperature;BMP_pressure;BME280_temperature;BME280_humidity;BME280_pressure;Samples;Min_cycle;Max_cycle;Signal;HPM_P1;HPM_P2
2023/09/09 00:01:51;;;;;;;36.70;12.53;;;29.60;55.40;;;;;;5029399;28;20200;-76
2023/09/09 00:04:18;;;;;;;35.93;12.60;;;29.60;55.40;;;;;;5032583;28;20210;-73
2023/09/09 00:06:45;;;;;;;37.77;12.73;;;29.50;55.40;;;;;;5040419;28;20207;-73
2023/09/09 00:09:15;;;;;;;31.37;11.97;;;29.60;55.40;;;;;;5041825;28;20203;-73
2023/09/09 00:11:42;;;;;;;46.70;13.73;;;29.50;55.30;;;;;;5042349;28;20200;-75
2023/09/09 00:14:09;;;;;;;31.23;12.27;;;29.50;55.30;;;;;;5048034;28;20242;-73
2023/09/09 00:16:36;;;;;;;42.30;13.73;;;29.50;56.00;;;;;;5042516;28;20267;-74
2023/09/09 00:19:03;;;;;;;36.90;12.53;;;29.50;55.30;;;;;;5029181;28;20208;-75
2023/09/09 00:21:30;;;;;;;35.97;13.17;;;29.50;55.30;;;;;;5029137;28;20205;-74
2023/09/09 00:23:57;;;;;;;30.33;12.43;;;29.50;55.30;;;;;;5041038;28;20200;-73
2023/09/09 00:26:28;;;;;;;34.23;12.80;;;29.50;55.40;;;;;;5048031;28;20660;-72
2023/09/09 00:28:55;;;;;;;37.60;12.37;;;29.40;55.30;;;;;;5038531;28;20235;-72
2023/09/09 00:31:22;;;;;;;35.63;12.27;;;29.40;55.30;;;;;;5049518;28;20298;-72
2023/09/09 00:33:49;;;;;;;38.57;13.23;;;29.40;55.30;;;;;;5049131;28;20246;-72
2023/09/09 00:36:16;;;;;;;36.30;13.90;;;29.40;55.30;;;;;;5049266;28;20226;-73
2023/09/09 00:38:43;;;;;;;45.33;14.77;;;29.40;55.30;;;;;;5048606;28;20283;-72
2023/09/09 00:41:11;;;;;;;46.73;14.17;;;29.30;55.30;;;;;;5048099;28;20250;-72
2023/09/09 00:43:40;;;;;;;50.17;14.43;;;29.40;55.30;;;;;;5047076;28;20645;-74
2023/09/09 00:46:09;;;;;;;35.47;13.63;;;29.30;55.20;;;;;;5048430;28;20279;-73
2023/09/09 00:48:37;;;;;;;35.13;13.07;;;29.30;55.20;;;;;;5047069;28;20230;-73
2023/09/09 00:51:07;;;;;;;40.70;13.40;;;29.30;55.20;;;;;;5047987;28;20206;-73
2023/09/09 00:53:35;;;;;;;34.57;14.07;;;29.30;55.20;;;;;;5048879;28;20216;-73
2023/09/09 00:56:02;;;;;;;33.53;13.63;;;29.20;55.20;;;;;;5047253;28;20197;-73
2023/09/09 00:58:31;;;;;;;35.87;13.57;;;29.20;55.20;;;;;;5044890;28;20324;-76
2023/09/09 01:01:02;;;;;;;39.63;13.93;;;29.20;55.10;;;;;;5028980;28;20212;-73
2023/09/09 01:03:30;;;;;;;32.37;13.13;;;29.20;55.20;;;;;;5042252;28;20258;-75
2023/09/09 01:05:57;;;;;;;35.10;13.40;;;29.20;55.20;;;;;;5047552;28;20216;-73
2023/09/09 01:08:27;;;;;;;31.33;13.40;;;29.20;55.10;;;;;;5047221;28;20291;-74
2023/09/09 01:10:54;;;;;;;37.37;13.97;;;29.20;55.10;;;;;;5047247;28;20204;-73
2023/09/09 01:13:21;;;;;;;37.23;12.97;;;29.20;55.20;;;;;;5048032;28;20803;-73
2023/09/09 01:15:48;;;;;;;45.80;14.60;;;29.10;55.10;;;;;;5048104;28;20188;-74
2023/09/09 01:18:18;;;;;;;36.60;13.23;;;29.10;55.10;;;;;;5047520;28;20196;-73
2023/09/09 01:20:53;;;;;;;30.90;12.20;;;29.10;55.10;;;;;;5048109;28;20192;-73
2023/09/09 01:23:22;;;;;;;34.33;13.57;;;29.10;55.20;;;;;;5047885;28;20291;-76
2023/09/09 01:25:49;;;;;;;37.03;12.93;;;29.10;55.10;;;;;;5048059;28;20206;-75
2023/09/09 01:28:19;;;;;;;39.67;13.07;;;29.10;55.20;;;;;;5045523;28;20204;-74
2023/09/09 01:30:45;;;;;;;28.07;12.20;;;29.10;55.20;;;;;;5048001;28;20235;-76
2023/09/09 01:33:12;;;;;;;35.33;13.13;;;29.10;55.80;;;;;;5047880;28;20278;-73
2023/09/09 01:35:39;;;;;;;33.23;13.67;;;29.00;55.10;;;;;;5046731;28;20311;-73
2023/09/09 01:38:06;;;;;;;36.93;13.33;;;29.00;55.10;;;;;;5046605;28;20204;-76
2023/09/09 01:40:35;;;;;;;36.67;13.50;;;29.00;55.10;;;;;;5046609;28;20196;-74
2023/09/09 01:43:02;;;;;;;32.37;14.03;;;29.00;55.10;;;;;;5045814;28;20208;-74
2023/09/09 01:45:29;;;;;;;40.07;14.57;;;29.00;55.10;;;;;;5047642;28;20208;-76
2023/09/09 01:47:56;;;;;;;39.93;13.87;;;29.00;55.10;;;;;;5045187;28;20206;-75
2023/09/09 01:50:23;;;;;;;32.03;13.10;;;29.00;55.10;;;;;;5046739;28;20196;-75
2023/09/09 01:52:50;;;;;;;43.60;14.13;;;29.00;55.10;;;;;;5041412;28;21226;-75
2023/09/09 01:55:17;;;;;;;33.90;12.60;;;29.00;55.10;;;;;;5046256;28;20231;-76
2023/09/09 01:57:46;;;;;;;36.37;12.83;;;28.90;55.10;;;;;;5037488;28;20291;-73
2023/09/09 02:00:13;;;;;;;37.30;13.20;;;28.90;55.00;;;;;;5032468;28;20287;-73
2023/09/09 02:02:40;;;;;;;32.83;12.83;;;28.90;55.10;;;;;;5046586;28;20202;-74
2023/09/09 02:05:09;;;;;;;33.93;12.63;;;28.90;55.10;;;;;;5047798;28;20203;-73
2023/09/09 02:07:36;;;;;;;34.47;13.00;;;28.80;55.00;;;;;;5047799;28;20234;-74
2023/09/09 02:10:03;;;;;;;41.83;13.40;;;28.80;55.00;;;;;;5047172;28;20204;-76
2023/09/09 02:12:30;;;;;;;30.70;12.30;;;28.80;55.00;;;;;;5036523;28;20208;-74
2023/09/09 02:14:58;;;;;;;31.73;12.70;;;28.80;55.60;;;;;;5046450;28;20204;-74
2023/09/09 02:17:25;;;;;;;40.33;13.40;;;28.80;55.00;;;;;;5047799;28;20231;-75
2023/09/09 02:19:56;;;;;;;46.10;14.13;;;28.80;55.00;;;;;;5039126;28;20257;-73
2023/09/09 02:22:23;;;;;;;34.57;13.37;;;28.80;55.00;;;;;;5048024;28;20206;-74
2023/09/09 02:24:54;;;;;;;34.30;12.50;;;28.80;55.00;;;;;;5046851;28;20242;-72
2023/09/09 02:27:21;;;;;;;39.73;12.33;;;28.80;55.00;;;;;;5046182;28;20200;-73
2023/09/09 02:29:48;;;;;;;36.40;12.83;;;28.80;55.60;;;;;;5046902;28;20287;-72
2023/09/09 02:32:16;;;;;;;33.83;12.33;;;28.70;55.00;;;;;;5046933;28;20222;-72
2023/09/09 02:34:43;;;;;;;33.20;12.10;;;28.80;55.00;;;;;;5047737;28;20228;-73
2023/09/09 02:37:16;;;;;;;31.23;12.67;;;28.70;55.00;;;;;;5047392;28;20243;-75
2023/09/09 02:39:44;;;;;;;41.60;12.93;;;28.70;54.90;;;;;;5046196;28;20563;-72
2023/09/09 02:42:13;;;;;;;37.20;13.47;;;28.70;54.90;;;;;;5046545;28;20208;-72
2023/09/09 02:44:41;;;;;;;37.43;12.47;;;28.70;54.90;;;;;;5045688;28;20567;-72
2023/09/09 02:47:08;;;;;;;35.90;12.63;;;28.70;54.90;;;;;;5042369;28;20211;-73
2023/09/09 02:49:38;;;;;;;35.07;12.03;;;28.70;54.90;;;;;;5027243;28;20205;-72
2023/09/09 02:52:06;;;;;;;30.03;11.77;;;28.70;54.90;;;;;;5027277;28;20559;-73
2023/09/09 02:54:34;;;;;;;34.80;12.97;;;28.70;55.00;;;;;;5039048;28;20267;-73
2023/09/09 02:57:03;;;;;;;36.93;12.20;;;28.60;54.90;;;;;;5045989;28;20240;-73
2023/09/09 02:59:30;;;;;;;36.73;13.00;;;28.60;54.90;;;;;;5027130;28;20697;-72
2023/09/09 03:01:57;;;;;;;36.53;12.23;;;28.60;54.90;;;;;;5036509;28;20207;-73
2023/09/09 03:04:24;;;;;;;40.90;12.50;;;28.60;55.00;;;;;;5046197;28;20287;-72
2023/09/09 03:06:52;;;;;;;34.30;11.87;;;28.60;54.90;;;;;;5046896;28;20208;-72
2023/09/09 03:09:20;;;;;;;49.20;13.93;;;28.60;54.90;;;;;;5043706;28;20207;-72
2023/09/09 03:11:47;;;;;;;63.60;14.77;;;28.50;54.90;;;;;;5048344;28;20566;-72
2023/09/09 03:14:14;;;;;;;45.77;13.90;;;28.50;54.90;;;;;;5034847;28;20225;-73
2023/09/09 03:16:41;;;;;;;29.60;12.23;;;28.50;54.90;;;;;;5049172;28;20220;-73
2023/09/09 03:19:08;;;;;;;29.13;12.10;;;28.50;54.90;;;;;;5035828;28;20200;-73
2023/09/09 03:21:35;;;;;;;35.47;13.13;;;28.50;54.90;;;;;;5031901;28;20275;-73
2023/09/09 03:24:04;;;;;;;32.77;13.37;;;28.50;54.90;;;;;;5038291;28;20288;-75
2023/09/09 03:26:32;;;;;;;67.07;15.87;;;28.50;54.90;;;;;;5029876;28;20901;-72
2023/09/09 03:28:59;;;;;;;41.03;14.00;;;28.50;54.90;;;;;;5030209;28;20206;-74
2023/09/09 03:31:26;;;;;;;28.67;11.90;;;28.50;54.90;;;;;;5038065;28;20210;-73
2023/09/09 03:33:53;;;;;;;33.97;13.50;;;28.50;54.90;;;;;;5050288;28;20277;-73
2023/09/09 03:36:20;;;;;;;34.57;12.27;;;28.50;54.90;;;;;;5050728;28;20275;-75
2023/09/09 03:38:47;;;;;;;35.00;12.70;;;28.40;54.80;;;;;;5046703;28;20295;-73
2023/09/09 03:41:15;;;;;;;29.47;11.87;;;28.40;54.80;;;;;;5043147;28;20324;-73
2023/09/09 03:43:42;;;;;;;77.83;16.00;;;28.40;54.80;;;;;;5033769;28;20306;-75
2023/09/09 03:46:09;;;;;;;32.47;11.50;;;28.40;54.80;;;;;;5049978;28;20287;-73
2023/09/09 03:48:36;;;;;;;28.27;10.93;;;28.40;54.80;;;;;;5048031;28;20287;-73
2023/09/09 03:51:04;;;;;;;33.90;11.27;;;28.40;54.80;;;;;;5048069;28;20291;-76
2023/09/09 03:53:31;;;;;;;39.83;11.80;;;28.40;54.80;;;;;;5039205;28;20451;-72
2023/09/09 03:56:00;;;;;;;28.20;10.67;;;28.40;54.80;;;;;;5049355;28;20759;-73
2023/09/09 03:58:28;;;;;;;29.73;10.47;;;28.40;54.80;;;;;;5035347;28;20213;-73
2023/09/09 04:01:05;;;;;;;38.60;10.77;;;28.30;54.80;;;;;;5029746;28;20291;-73
2023/09/09 04:03:33;;;;;;;29.60;10.37;;;28.30;54.70;;;;;;5032998;28;20540;-72
2023/09/09 04:06:03;;;;;;;31.60;10.10;;;28.30;54.80;;;;;;5029127;28;20208;-72
2023/09/09 04:08:31;;;;;;;35.50;10.70;;;28.30;54.80;;;;;;5037503;28;20204;-74
2023/09/09 04:10:57;;;;;;;35.27;10.93;;;28.30;54.80;;;;;;5048310;28;20207;-73
2023/09/09 04:13:24;;;;;;;25.73;9.70;;;28.30;54.80;;;;;;5049168;28;20235;-72
2023/09/09 04:15:54;;;;;;;34.87;11.07;;;28.30;54.80;;;;;;5043626;28;20299;-72
2023/09/09 04:18:22;;;;;;;32.23;10.53;;;28.20;54.70;;;;;;5030732;28;20252;-73
2023/09/09 04:20:48;;;;;;;37.17;11.53;;;28.30;54.80;;;;;;5028666;28;20632;-72
2023/09/09 04:23:16;;;;;;;34.80;10.87;;;28.20;54.70;;;;;;5029447;28;20641;-71
2023/09/09 04:25:44;;;;;;;36.07;11.27;;;28.30;54.80;;;;;;5028868;28;20292;-73
2023/09/09 04:28:11;;;;;;;27.37;10.37;;;28.20;54.70;;;;;;5032841;28;20308;-71
2023/09/09 04:30:39;;;;;;;26.60;10.40;;;28.20;54.70;;;;;;5049387;28;20287;-73
2023/09/09 04:33:11;;;;;;;30.70;11.00;;;28.20;55.30;;;;;;5048952;28;20202;-74
2023/09/09 04:35:39;;;;;;;29.57;11.20;;;28.20;54.70;;;;;;5034627;28;20266;-74
2023/09/09 04:38:06;;;;;;;33.07;11.10;;;28.20;54.70;;;;;;5048893;28;20274;-72
2023/09/09 04:40:34;;;;;;;38.07;12.70;;;28.20;54.70;;;;;;5041916;28;20932;-72
2023/09/09 04:43:00;;;;;;;34.07;11.97;;;28.20;54.70;;;;;;5036160;28;20213;-74
2023/09/09 04:45:27;;;;;;;64.40;14.17;;;28.20;54.70;;;;;;5027328;28;20241;-73
2023/09/09 04:47:54;;;;;;;40.57;11.40;;;28.20;54.70;;;;;;5043819;28;20232;-74
2023/09/09 04:50:23;;;;;;;44.20;12.43;;;28.10;54.70;;;;;;5047681;28;20609;-71
2023/09/09 04:52:50;;;;;;;32.30;11.20;;;28.10;54.70;;;;;;5048640;28;20200;-71
2023/09/09 04:55:18;;;;;;;36.40;12.03;;;28.00;54.60;;;;;;5047995;28;20710;-71
2023/09/09 04:57:45;;;;;;;36.70;11.57;;;28.10;54.70;;;;;;5048661;28;20200;-70
2023/09/09 05:00:12;;;;;;;30.70;11.20;;;28.10;54.70;;;;;;5046116;28;20569;-72
2023/09/09 05:02:40;;;;;;;36.42;12.65;;;28.10;54.70;;;;;;5046574;28;20906;-73
2023/09/09 05:05:08;;;;;;;35.43;11.63;;;27.90;54.80;;;;;;5047715;28;20215;-73
2023/09/09 05:07:37;;;;;;;37.83;11.97;;;27.90;54.80;;;;;;5045699;28;20570;-76
2023/09/09 05:10:05;;;;;;;37.63;11.43;;;28.00;54.90;;;;;;5027899;28;20271;-73
2023/09/09 05:12:32;;;;;;;30.83;10.50;;;28.00;54.80;;;;;;5028134;28;20205;-70
2023/09/09 05:14:59;;;;;;;34.33;11.00;;;28.00;54.70;;;;;;5028033;28;20228;-72
2023/09/09 05:17:27;;;;;;;28.87;10.37;;;28.00;54.70;;;;;;5027693;28;20212;-71
2023/09/09 05:19:54;;;;;;;32.03;10.63;;;28.00;54.60;;;;;;5028261;28;20197;-71
2023/09/09 05:22:21;;;;;;;48.17;12.17;;;28.00;54.60;;;;;;5027597;28;20287;-70
2023/09/09 05:24:49;;;;;;;33.43;10.90;;;28.00;55.20;;;;;;5028507;28;20303;-71
2023/09/09 05:27:17;;;;;;;44.27;11.87;;;28.00;54.60;;;;;;5026356;28;20291;-74
2023/09/09 05:29:44;;;;;;;34.40;11.40;;;28.00;54.60;;;;;;5028332;28;20197;-71
2023/09/09 05:32:11;;;;;;;41.33;12.40;;;28.00;54.60;;;;;;5027205;28;20213;-70
2023/09/09 05:34:37;;;;;;;39.47;11.57;;;28.00;54.60;;;;;;5027757;28;20724;-71
2023/09/09 05:37:05;;;;;;;32.17;10.63;;;28.00;54.60;;;;;;5027704;28;20654;-71
2023/09/09 05:39:32;;;;;;;31.40;11.37;;;27.90;54.50;;;;;;5027789;28;20225;-73
2023/09/09 05:42:00;;;;;;;33.73;11.10;;;28.00;54.60;;;;;;5033824;28;20293;-71
2023/09/09 05:44:27;;;;;;;34.80;12.40;;;27.90;54.50;;;;;;5047550;28;20222;-71
2023/09/09 05:46:54;;;;;;;32.47;11.77;;;27.90;54.50;;;;;;5048048;28;20200;-71
2023/09/09 05:49:22;;;;;;;30.03;11.20;;;27.90;54.60;;;;;;5047420;28;20570;-72
2023/09/09 05:51:49;;;;;;;36.33;11.67;;;27.90;54.60;;;;;;5047326;28;20267;-72
2023/09/09 05:54:16;;;;;;;31.47;11.10;;;27.90;54.60;;;;;;5047275;28;20290;-72
2023/09/09 05:56:43;;;;;;;31.03;11.43;;;27.90;54.60;;;;;;5047928;28;20207;-71
2023/09/09 05:59:11;;;;;;;46.43;12.70;;;27.90;54.60;;;;;;5031712;28;20208;-71
2023/09/09 06:01:38;;;;;;;33.13;11.67;;;27.90;54.60;;;;;;5047468;28;20295;-72
2023/09/09 06:04:05;;;;;;;29.30;11.00;;;27.90;54.60;;;;;;5047484;28;20287;-71
2023/09/09 06:06:32;;;;;;;30.53;11.83;;;27.90;54.60;;;;;;5029497;28;20290;-72
2023/09/09 06:08:59;;;;;;;36.40;12.30;;;27.80;54.60;;;;;;5027690;28;20197;-72
2023/09/09 06:11:26;;;;;;;35.07;12.47;;;27.90;54.70;;;;;;5028069;28;20995;-73
2023/09/09 06:13:53;;;;;;;49.03;14.37;;;27.90;55.30;;;;;;5029197;28;20208;-72
2023/09/09 06:16:21;;;;;;;34.73;12.67;;;27.90;54.70;;;;;;5045979;28;20291;-73
2023/09/09 06:18:49;;;;;;;30.87;12.63;;;27.80;54.70;;;;;;5036452;28;20196;-70
2023/09/09 06:21:16;;;;;;;44.67;14.83;;;27.90;55.30;;;;;;5045024;28;20200;-70
2023/09/09 06:23:42;;;;;;;40.27;14.77;;;27.80;54.70;;;;;;5028889;28;20271;-70
2023/09/09 06:26:10;;;;;;;38.47;14.70;;;27.80;54.70;;;;;;5027262;28;20209;-70
2023/09/09 06:28:37;;;;;;;36.73;14.50;;;27.80;54.70;;;;;;5034202;28;20226;-71
2023/09/09 06:31:04;;;;;;;39.67;15.40;;;27.80;54.70;;;;;;5031413;28;20290;-70
2023/09/09 06:33:32;;;;;;;46.07;16.43;;;27.80;54.70;;;;;;5047365;28;20228;-72
2023/09/09 06:35:59;;;;;;;35.60;16.23;;;27.80;54.70;;;;;;5047079;28;20315;-72
2023/09/09 06:38:26;;;;;;;40.07;17.53;;;27.80;54.70;;;;;;5045735;28;20639;-73
2023/09/09 06:40:53;;;;;;;37.53;16.37;;;27.80;54.70;;;;;;5043337;28;20236;-72
2023/09/09 06:43:21;;;;;;;40.17;16.40;;;27.80;54.70;;;;;;5044414;28;20216;-73
2023/09/09 06:45:48;;;;;;;42.80;17.10;;;27.80;54.70;;;;;;5051100;28;20200;-72
2023/09/09 06:48:17;;;;;;;38.90;17.50;;;27.80;54.70;;;;;;5046944;28;20197;-71
2023/09/09 06:50:47;;;;;;;38.97;18.20;;;27.80;54.80;;;;;;5030671;28;20209;-75
2023/09/09 06:53:14;;;;;;;39.90;17.63;;;27.80;54.80;;;;;;5031130;28;20259;-71
2023/09/09 06:55:44;;;;;;;43.70;18.40;;;27.80;54.80;;;;;;5030694;28;20345;-72
2023/09/09 06:58:12;;;;;;;55.27;19.27;;;27.90;55.00;;;;;;5031828;28;20401;-73
2023/09/09 07:00:39;;;;;;;45.60;17.77;;;27.80;54.90;;;;;;5030365;28;20669;-72
2023/09/09 07:03:07;;;;;;;43.27;17.73;;;27.80;54.90;;;;;;5032580;28;20230;-76
2023/09/09 07:05:34;;;;;;;46.77;18.30;;;27.90;55.00;;;;;;5030633;28;20197;-73
2023/09/09 07:08:03;;;;;;;36.47;16.87;;;27.90;55.70;;;;;;5031117;28;20208;-75
2023/09/09 07:10:30;;;;;;;44.23;18.70;;;27.90;55.10;;;;;;5030916;28;20286;-72
2023/09/09 07:12:57;;;;;;;39.23;18.03;;;27.90;55.10;;;;;;5031239;28;20209;-75
2023/09/09 07:15:24;;;;;;;48.23;18.33;;;27.90;55.10;;;;;;5031124;28;20231;-79
2023/09/09 07:17:51;;;;;;;39.70;17.67;;;27.90;55.70;;;;;;5047789;28;20220;-78
2023/09/09 07:20:18;;;;;;;42.73;17.90;;;27.90;55.10;;;;;;5050106;28;20796;-76
2023/09/09 07:22:45;;;;;;;37.93;17.00;;;27.90;55.20;;;;;;5048832;28;20204;-75
2023/09/09 07:25:13;;;;;;;40.37;17.50;;;27.90;55.10;;;;;;5050450;28;20235;-78
2023/09/09 07:27:40;;;;;;;40.40;16.93;;;28.00;55.30;;;;;;5049277;28;20993;-78
2023/09/09 07:30:10;;;;;;;40.17;16.90;;;28.00;55.20;;;;;;5041840;28;20205;-77
2023/09/09 07:32:37;;;;;;;80.23;20.80;;;28.00;55.30;;;;;;5033459;28;20208;-76
2023/09/09 07:35:05;;;;;;;38.07;16.23;;;28.00;55.90;;;;;;5043472;28;20719;-77
2023/09/09 07:37:32;;;;;;;43.07;15.53;;;28.00;55.30;;;;;;5048155;28;20198;-76
2023/09/09 07:39:59;;;;;;;45.53;15.73;;;28.00;55.30;;;;;;5037176;28;20668;-78
2023/09/09 07:42:28;;;;;;;44.70;15.27;;;28.10;55.40;;;;;;5048016;28;20209;-77
2023/09/09 07:44:55;;;;;;;36.93;14.23;;;28.10;55.40;;;;;;5049943;28;20315;-77
2023/09/09 07:47:22;;;;;;;48.33;15.37;;;28.20;55.40;;;;;;5042570;28;20206;-76
2023/09/09 07:49:50;;;;;;;43.37;14.53;;;28.20;55.50;;;;;;5048862;28;20204;-77
2023/09/09 07:52:17;;;;;;;33.73;13.33;;;28.20;55.50;;;;;;5067773;28;20294;-73
2023/09/09 07:54:44;;;;;;;52.10;15.20;;;28.20;55.50;;;;;;5051896;28;20232;-73
2023/09/09 07:57:11;;;;;;;33.23;12.07;;;28.30;55.50;;;;;;5045099;28;20228;-74
2023/09/09 07:59:40;;;;;;;33.03;12.53;;;28.30;55.50;;;;;;5041026;28;20304;-73
2023/09/09 08:02:08;;;;;;;38.07;12.03;;;28.30;55.60;;;;;;5032630;28;20542;-73
2023/09/09 08:04:34;;;;;;;31.57;11.77;;;28.40;55.70;;;;;;5043591;28;20196;-73
2023/09/09 08:07:01;;;;;;;44.30;13.03;;;28.40;55.70;;;;;;5041460;28;20283;-74
2023/09/09 08:09:28;;;;;;;57.47;14.27;;;28.40;55.70;;;;;;5032222;28;20913;-73
2023/09/09 08:11:55;;;;;;;32.70;11.43;;;28.40;55.70;;;;;;5049140;28;20287;-72
2023/09/09 08:14:22;;;;;;;38.27;12.07;;;28.50;55.80;;;;;;5040064;28;20287;-72
2023/09/09 08:16:51;;;;;;;41.30;11.67;;;28.60;55.80;;;;;;5029141;28;20197;-72
2023/09/09 08:19:18;;;;;;;32.27;11.27;;;28.60;55.80;;;;;;5029665;28;20295;-72
2023/09/09 08:21:45;;;;;;;34.50;10.80;;;28.60;55.90;;;;;;5029257;28;20205;-73
2023/09/09 08:24:12;;;;;;;35.80;11.70;;;28.70;55.90;;;;;;5028656;28;20233;-72
2023/09/09 08:26:39;;;;;;;39.63;11.70;;;28.70;55.80;;;;;;5046924;28;20691;-72
2023/09/09 08:29:06;;;;;;;32.33;11.10;;;28.80;56.00;;;;;;5049105;28;20188;-73
2023/09/09 08:31:35;;;;;;;30.80;10.77;;;28.80;55.90;;;;;;5043419;28;20288;-72
2023/09/09 08:34:03;;;;;;;36.90;11.23;;;28.80;55.90;;;;;;5027813;28;20224;-73
2023/09/09 08:36:30;;;;;;;32.87;10.57;;;28.90;55.90;;;;;;5029097;28;20255;-73
2023/09/09 08:38:57;;;;;;;47.53;12.43;;;28.90;55.90;;;;;;5028967;28;20699;-73
2023/09/09 08:41:34;;;;;;;29.57;10.17;;;29.00;56.00;;;;;;5035666;28;20196;-73
2023/09/09 08:44:11;;;;;;;33.43;11.17;;;29.00;56.00;;;;;;5048674;28;20295;-72
2023/09/09 08:46:38;;;;;;;39.07;10.67;;;29.00;56.00;;;;;;5048453;28;20804;-73
2023/09/09 08:49:10;;;;;;;33.07;10.67;;;29.10;56.00;;;;;;5048885;28;20281;-73
2023/09/09 08:51:43;;;;;;;38.27;10.80;;;29.20;56.10;;;;;;5048769;28;20290;-73
2023/09/09 08:54:12;;;;;;;35.17;10.37;;;29.20;56.60;;;;;;5048587;28;20291;-72
2023/09/09 08:56:40;;;;;;;36.77;10.77;;;29.30;56.00;;;;;;5048382;28;20307;-74
2023/09/09 08:59:08;;;;;;;33.10;9.83;;;29.30;56.00;;;;;;5048789;28;20238;-73
2023/09/09 09:01:37;;;;;;;35.20;9.90;;;29.30;56.00;;;;;;5047241;28;20205;-74
2023/09/09 09:04:04;;;;;;;34.23;9.43;;;29.40;56.00;;;;;;5048517;28;20202;-75
2023/09/09 09:06:34;;;;;;;33.83;10.00;;;29.40;56.10;;;;;;5047638;28;20291;-75
2023/09/09 09:09:01;;;;;;;31.23;9.43;;;29.50;56.10;;;;;;5047904;28;20279;-73
2023/09/09 09:11:28;;;;;;;32.40;9.30;;;29.50;56.10;;;;;;5033640;28;20295;-73
2023/09/09 09:13:55;;;;;;;31.67;8.70;;;29.50;56.00;;;;;;5041001;28;20295;-73
2023/09/09 09:16:22;;;;;;;34.60;8.93;;;29.60;56.10;;;;;;5047548;28;20700;-73
2023/09/09 09:18:49;;;;;;;38.03;9.30;;;29.60;56.00;;;;;;5047887;28;20210;-70
2023/09/09 09:21:16;;;;;;;32.27;8.53;;;29.70;56.10;;;;;;5048264;28;20276;-70
2023/09/09 09:23:45;;;;;;;32.30;8.87;;;29.70;56.00;;;;;;5048205;28;20211;-70
2023/09/09 09:26:25;;;;;;;29.00;8.60;;;29.80;56.10;;;;;;5047900;28;20287;-74
2023/09/09 09:28:52;;;;;;;46.57;9.80;;;29.90;56.10;;;;;;5047731;28;20218;-73
2023/09/09 09:31:23;;;;;;;33.73;9.00;;;29.90;56.00;;;;;;5041845;28;20283;-73
2023/09/09 09:33:51;;;;;;;51.07;11.40;;;30.00;56.00;;;;;;5036572;28;20425;-76
2023/09/09 09:36:20;;;;;;;26.07;7.93;;;29.90;56.20;;;;;;5045263;28;20220;-74
2023/09/09 09:38:49;;;;;;;35.07;8.70;;;30.00;56.20;;;;;;5041353;28;20657;-74
2023/09/09 09:41:17;;;;;;;39.10;12.23;;;30.00;56.10;;;;;;5046914;28;20275;-75
2023/09/09 09:43:45;;;;;;;40.53;16.93;;;30.10;56.00;;;;;;5047188;28;20299;-72
2023/09/09 09:46:16;;;;;;;53.37;23.87;;;30.20;56.00;;;;;;5027647;28;20628;-76
2023/09/09 09:48:43;;;;;;;58.67;25.97;;;30.20;55.80;;;;;;5027280;28;20222;-77
2023/09/09 09:51:11;;;;;;;51.53;25.17;;;30.20;55.80;;;;;;5047857;28;20282;-76
2023/09/09 09:53:39;;;;;;;52.80;21.63;;;30.30;55.80;;;;;;5032189;28;20995;-73
2023/09/09 09:56:08;;;;;;;53.10;21.70;;;30.30;55.70;;;;;;5047646;28;20723;-76
2023/09/09 09:58:38;;;;;;;51.70;21.23;;;30.30;55.60;;;;;;5047107;28;20294;-76
2023/09/09 10:01:06;;;;;;;47.13;19.50;;;30.30;55.50;;;;;;5047985;28;20195;-78
2023/09/09 10:03:46;;;;;;;38.67;17.23;;;30.40;55.60;;;;;;5047716;28;20204;-78
2023/09/09 10:06:18;;;;;;;65.40;19.60;;;30.30;55.40;;;;;;5039464;28;20327;-78
2023/09/09 10:08:49;;;;;;;41.40;16.70;;;30.40;55.40;;;;;;5031437;28;20208;-76
2023/09/09 10:11:23;;;;;;;44.13;16.77;;;30.40;55.40;;;;;;5045405;28;20206;-74
2023/09/09 10:14:03;;;;;;;47.60;17.37;;;30.30;55.30;;;;;;5047367;28;20200;-73
2023/09/09 10:16:32;;;;;;;41.73;15.33;;;30.40;55.40;;;;;;5044463;28;20219;-74
2023/09/09 10:19:00;;;;;;;46.73;15.10;;;30.40;55.40;;;;;;5051158;28;20633;-74
2023/09/09 10:21:29;;;;;;;43.47;14.07;;;30.30;55.30;;;;;;5051351;28;20287;-75
2023/09/09 10:23:57;;;;;;;39.27;13.83;;;30.40;55.40;;;;;;5051532;28;20239;-74
2023/09/09 10:26:26;;;;;;;41.20;14.67;;;30.30;55.30;;;;;;5041036;28;20283;-74
2023/09/09 10:28:55;;;;;;;43.13;14.48;;;30.30;55.40;;;;;;5051278;28;20683;-75
2023/09/09 10:31:23;;;;;;;42.57;14.07;;;30.30;56.00;;;;;;5051537;28;20271;-73
2023/09/09 10:33:50;;;;;;;40.17;13.70;;;30.30;55.30;;;;;;5051023;28;20315;-73
2023/09/09 10:36:19;;;;;;;46.90;14.60;;;30.30;55.30;;;;;;5051039;28;20311;-72
2023/09/09 10:38:46;;;;;;;38.47;13.30;;;30.30;55.40;;;;;;5051136;28;20743;-72
2023/09/09 10:41:13;;;;;;;33.13;13.03;;;30.40;55.40;;;;;;5051118;28;20703;-72
2023/09/09 10:43:41;;;;;;;42.30;13.93;;;30.30;55.40;;;;;;5042419;28;20211;-72
2023/09/09 10:46:09;;;;;;;25.40;13.10;;;30.30;55.40;;;;;;5046253;28;20308;-72
2023/09/09 10:48:36;;;;;;;40.97;13.13;;;30.30;55.50;;;;;;5051544;28;20842;-72
2023/09/09 10:51:06;;;;;;;31.13;12.60;;;30.30;55.50;;;;;;5051663;28;20200;-74
2023/09/09 10:53:34;;;;;;;35.90;12.80;;;30.30;55.50;;;;;;5050994;28;20208;-73
2023/09/09 10:56:22;;;;;;;46.63;14.13;;;30.30;55.50;;;;;;5050328;28;21085;-73
2023/09/09 10:58:51;;;;;;;50.67;14.00;;;30.30;55.50;;;;;;5050541;28;20188;-75
2023/09/09 11:01:23;;;;;;;40.42;12.02;;;30.30;55.50;;;;;;5050817;28;20188;-72
2023/09/09 11:03:51;;;;;;;40.73;13.73;;;30.30;55.50;;;;;;5050818;28;20219;-77
2023/09/09 11:06:27;;;;;;;45.67;12.73;;;30.30;55.50;;;;;;5050496;28;20567;-76
2023/09/09 11:08:55;;;;;;;38.20;11.90;;;30.30;55.50;;;;;;5050595;28;20310;-75
2023/09/09 11:11:27;;;;;;;55.80;13.33;;;30.30;55.50;;;;;;5048341;28;20678;-73
2023/09/09 11:14:03;;;;;;;34.83;11.43;;;30.30;55.50;;;;;;5030659;28;20234;-72
2023/09/09 11:16:32;;;;;;;36.70;12.03;;;30.30;55.50;;;;;;5041148;28;20227;-73
2023/09/09 11:19:02;;;;;;;45.63;12.63;;;30.30;55.50;;;;;;5050507;28;20655;-73
2023/09/09 11:21:32;;;;;;;36.87;12.30;;;30.30;55.50;;;;;;5050540;28;20271;-73
2023/09/09 11:24:00;;;;;;;31.83;11.27;;;30.30;55.60;;;;;;5050183;28;20200;-73
2023/09/09 11:26:28;;;;;;;40.37;13.17;;;30.30;55.60;;;;;;5049885;28;20398;-72
2023/09/09 11:28:55;;;;;;;42.60;13.43;;;30.20;55.60;;;;;;5049429;28;20283;-73
2023/09/09 11:31:24;;;;;;;30.90;11.40;;;30.30;55.60;;;;;;5050116;28;20204;-72
2023/09/09 11:33:51;;;;;;;48.00;13.40;;;30.20;55.60;;;;;;5050086;28;20307;-73
2023/09/09 11:36:19;;;;;;;34.17;12.27;;;30.20;55.60;;;;;;5049942;28;20234;-75
2023/09/09 11:38:46;;;;;;;38.87;12.00;;;30.20;55.60;;;;;;5049929;28;20839;-77
2023/09/09 11:41:21;;;;;;;30.13;11.57;;;30.20;55.60;;;;;;5049633;28;20201;-75
2023/09/09 11:43:58;;;;;;;48.53;12.40;;;30.20;55.60;;;;;;5048309;28;20544;-73
2023/09/09 11:46:28;;;;;;;32.87;11.40;;;30.20;55.70;;;;;;5029638;28;20628;-73
2023/09/09 11:48:55;;;;;;;38.20;11.47;;;30.20;55.60;;;;;;5029914;28;20280;-75
2023/09/09 11:51:22;;;;;;;31.83;10.63;;;30.20;55.60;;;;;;5034506;28;20200;-75
2023/09/09 11:53:50;;;;;;;53.37;13.47;;;30.20;55.70;;;;;;5049500;28;20204;-73
2023/09/09 11:56:20;;;;;;;36.83;11.40;;;30.20;55.70;;;;;;5049927;28;20228;-77
2023/09/09 11:58:47;;;;;;;31.00;10.60;;;30.20;55.80;;;;;;5049935;28;20282;-74
2023/09/09 12:01:14;;;;;;;29.57;11.13;;;30.20;55.70;;;;;;5037051;28;20212;-76
2023/09/09 12:03:43;;;;;;;39.77;12.27;;;30.20;55.70;;;;;;5029753;28;20766;-77
2023/09/09 12:06:12;;;;;;;34.17;11.20;;;30.20;55.70;;;;;;5029765;28;20288;-75
2023/09/09 12:08:40;;;;;;;33.37;11.93;;;30.20;55.80;;;;;;5029448;28;20731;-73
2023/09/09 12:11:09;;;;;;;35.93;10.90;;;30.20;55.70;;;;;;5029509;28;20304;-73
2023/09/09 12:13:37;;;;;;;20.27;9.87;;;30.20;55.80;;;;;;5029608;28;20240;-73
2023/09/09 12:16:08;;;;;;;31.37;10.47;;;30.20;55.80;;;;;;5046869;28;20224;-74
2023/09/09 12:18:35;;;;;;;32.13;10.90;;;30.20;55.80;;;;;;5041979;28;20211;-75
2023/09/09 12:21:04;;;;;;;38.27;11.33;;;30.30;55.80;;;;;;5049294;28;20280;-74
2023/09/09 12:23:33;;;;;;;30.90;10.47;;;30.20;55.80;;;;;;5049244;28;20212;-73
2023/09/09 12:26:13;;;;;;;35.93;10.90;;;30.30;55.80;;;;;;5049007;28;20196;-75
2023/09/09 12:28:41;;;;;;;39.37;11.43;;;30.30;55.80;;;;;;5049085;28;20288;-75
2023/09/09 12:31:08;;;;;;;29.97;10.20;;;30.30;55.80;;;;;;5049320;28;20215;-73
2023/09/09 12:33:40;;;;;;;34.93;10.80;;;30.30;55.80;;;;;;5047856;28;20260;-75